createdAt,value
2019-03-27T00:00:00.579Z,4.27
2019-03-27T00:02:31.333Z,4.90
2019-03-27T00:05:03.565Z,4.27
2019-03-27T00:07:34.329Z,4.17
2019-03-27T00:10:08.456Z,4.17
2019-03-27T00:12:39.323Z,4.00
2019-03-27T00:15:13.386Z,4.60
2019-03-27T00:17:43.187Z,4.50
2019-03-27T00:20:14.451Z,4.17
2019-03-27T00:22:44.925Z,4.67
2019-03-27T00:25:15.991Z,4.60
2019-03-27T00:27:46.361Z,4.57
2019-03-27T00:30:18.539Z,4.43
2019-03-27T00:32:49.439Z,4.87
2019-03-27T00:35:20.281Z,5.07
2019-03-27T00:37:51.011Z,4.73
2019-03-27T00:40:21.744Z,4.33
2019-03-27T00:42:52.528Z,4.53
2019-03-27T00:45:26.935Z,4.50
2019-03-27T00:47:55.687Z,4.20
2019-03-27T00:50:26.255Z,4.33
2019-03-27T00:52:58.733Z,4.00
2019-03-27T00:55:28.954Z,4.40
2019-03-27T00:57:59.946Z,4.73
2019-03-27T01:00:45.282Z,4.50
2019-03-27T01:03:16.063Z,4.43
2019-03-27T01:05:48.523Z,4.30
2019-03-27T01:08:19.413Z,4.07
2019-03-27T01:10:50.359Z,4.20
2019-03-27T01:13:21.161Z,3.80
2019-03-27T01:15:53.337Z,3.80
2019-03-27T01:18:24.158Z,4.47
2019-03-27T01:20:54.973Z,4.27
2019-03-27T01:23:25.935Z,4.43
2019-03-27T01:25:56.703Z,3.87
2019-03-27T01:28:27.175Z,3.80
2019-03-27T01:30:58.044Z,3.90
2019-03-27T01:33:28.841Z,4.00
2019-03-27T01:35:59.677Z,4.07
2019-03-27T01:38:30.531Z,4.40
2019-03-27T01:41:02.147Z,3.93
2019-03-27T01:43:33.054Z,3.80
2019-03-27T01:46:03.766Z,4.33
2019-03-27T01:48:34.622Z,3.87
2019-03-27T01:51:05.058Z,3.83
2019-03-27T01:53:35.790Z,3.80
2019-03-27T01:56:06.699Z,4.37
2019-03-27T01:58:40.343Z,3.93
2019-03-27T02:01:11.277Z,3.77
2019-03-27T02:03:42.103Z,4.10
2019-03-27T02:06:12.959Z,4.33
2019-03-27T02:08:46.417Z,4.43
2019-03-27T02:11:17.283Z,4.50
2019-03-27T02:13:47.985Z,4.10
2019-03-27T02:16:22.074Z,4.80
2019-03-27T02:18:52.604Z,4.70
2019-03-27T02:21:23.795Z,4.90
2019-03-27T02:23:55.263Z,4.73
2019-03-27T02:26:27.690Z,4.77
2019-03-27T02:28:58.551Z,5.60
2019-03-27T02:31:29.414Z,5.67
2019-03-27T02:34:00.319Z,5.43
2019-03-27T02:36:31.168Z,5.87
2019-03-27T02:39:02.170Z,6.07
2019-03-27T02:41:33.020Z,6.37
2019-03-27T02:44:03.905Z,7.00
2019-03-27T02:46:34.623Z,7.27
2019-03-27T02:49:05.553Z,7.93
2019-03-27T02:51:36.318Z,7.50
2019-03-27T02:54:08.262Z,8.30
2019-03-27T02:56:39.106Z,7.70
2019-03-27T02:59:12.985Z,8.47
2019-03-27T03:01:47.696Z,8.63
2019-03-27T03:04:16.206Z,8.57
2019-03-27T03:06:47.064Z,9.00
2019-03-27T03:09:17.799Z,9.67
2019-03-27T03:11:48.630Z,9.27
2019-03-27T03:14:19.077Z,9.40
2019-03-27T03:16:49.479Z,9.63
2019-03-27T03:19:20.336Z,9.70
2019-03-27T03:21:51.291Z,9.97
2019-03-27T03:24:22.214Z,9.00
2019-03-27T03:26:53.040Z,9.53
2019-03-27T03:29:23.867Z,10.00
2019-03-27T03:31:54.772Z,10.43
2019-03-27T03:34:25.695Z,10.83
2019-03-27T03:36:56.567Z,10.40
2019-03-27T03:39:27.419Z,9.10
2019-03-27T03:41:58.256Z,9.77
2019-03-27T03:44:28.802Z,9.73
2019-03-27T03:47:00.650Z,10.30
2019-03-27T03:49:31.671Z,9.57
2019-03-27T03:52:02.625Z,9.97
2019-03-27T03:54:33.557Z,9.70
2019-03-27T03:57:05.370Z,9.90
2019-03-27T03:59:37.710Z,8.90
2019-03-27T04:02:08.517Z,8.70
2019-03-27T04:04:41.738Z,9.17
2019-03-27T04:07:12.583Z,10.07
2019-03-27T04:09:43.588Z,8.87
2019-03-27T04:12:14.351Z,8.80
2019-03-27T04:14:45.279Z,8.47
2019-03-27T04:17:17.761Z,9.03
2019-03-27T04:19:48.656Z,8.40
2019-03-27T04:22:19.533Z,9.03
2019-03-27T04:24:49.958Z,8.73
2019-03-27T04:27:20.363Z,8.57
2019-03-27T04:29:51.112Z,9.13
2019-03-27T04:32:21.950Z,8.53
2019-03-27T04:34:52.466Z,8.50
2019-03-27T04:37:23.211Z,8.00
2019-03-27T04:39:53.968Z,7.57
2019-03-27T04:42:24.780Z,8.63
2019-03-27T04:44:55.509Z,7.80
2019-03-27T04:47:32.327Z,7.67
2019-03-27T04:49:58.715Z,7.93
2019-03-27T04:52:29.459Z,7.97
2019-03-27T04:55:00.404Z,7.93
2019-03-27T04:57:31.230Z,8.03
2019-03-27T05:00:02.107Z,7.47
2019-03-27T05:02:33.001Z,8.00
2019-03-27T05:05:05.212Z,7.53
2019-03-27T05:07:36.057Z,8.47
2019-03-27T05:10:07.424Z,7.57
2019-03-27T05:12:38.889Z,7.23
2019-03-27T05:15:09.956Z,7.80
2019-03-27T05:17:46.062Z,8.03
2019-03-27T05:20:13.578Z,7.93
2019-03-27T05:22:44.030Z,8.10
2019-03-27T05:25:14.830Z,7.93
2019-03-27T05:27:45.674Z,7.47
2019-03-27T05:30:19.616Z,7.37
2019-03-27T05:32:50.430Z,7.53
2019-03-27T05:35:21.260Z,7.30
2019-03-27T05:37:52.160Z,7.50
2019-03-27T05:40:23.070Z,7.67
2019-03-27T05:43:00.438Z,7.87
2019-03-27T05:45:26.850Z,7.70
2019-03-27T05:48:03.356Z,7.73
2019-03-27T05:50:34.458Z,7.03
2019-03-27T05:53:05.237Z,7.77
2019-03-27T05:55:36.235Z,8.30
2019-03-27T05:58:07.085Z,8.03
2019-03-27T06:00:38.082Z,8.80
2019-03-27T06:03:08.801Z,7.93
2019-03-27T06:05:39.924Z,8.20
2019-03-27T06:08:10.683Z,8.40
2019-03-27T06:10:41.682Z,8.47
2019-03-27T06:13:12.760Z,7.70
2019-03-27T06:15:45.149Z,7.97
2019-03-27T06:18:20.680Z,7.63
2019-03-27T06:20:51.726Z,7.80
2019-03-27T06:23:23.950Z,8.03
2019-03-27T06:25:54.783Z,8.37
2019-03-27T06:28:25.525Z,8.93
2019-03-27T06:30:56.354Z,8.30
2019-03-27T06:33:27.087Z,9.13
2019-03-27T06:35:58.178Z,9.33
2019-03-27T06:38:29.072Z,9.37
2019-03-27T06:40:59.896Z,9.50
2019-03-27T06:43:30.767Z,9.60
2019-03-27T06:46:01.545Z,9.87
2019-03-27T06:48:32.519Z,9.50
2019-03-27T06:51:03.105Z,9.43
2019-03-27T06:53:33.568Z,9.97
2019-03-27T06:56:04.217Z,9.63
2019-03-27T06:58:34.937Z,9.50
2019-03-27T07:01:05.819Z,9.20
2019-03-27T07:03:36.628Z,9.40
2019-03-27T07:06:07.534Z,9.00
2019-03-27T07:08:38.487Z,8.27
2019-03-27T07:11:10.991Z,8.20
2019-03-27T07:13:41.795Z,8.60
2019-03-27T07:16:12.684Z,8.73
2019-03-27T07:18:44.085Z,8.63
2019-03-27T07:21:14.933Z,9.13
2019-03-27T07:23:45.717Z,8.90
2019-03-27T07:26:16.551Z,8.23
2019-03-27T07:28:48.745Z,8.40
2019-03-27T07:31:21.319Z,7.87
2019-03-27T07:33:52.193Z,7.27
2019-03-27T07:36:23.037Z,7.97
2019-03-27T07:39:10.441Z,7.37
2019-03-27T07:41:31.691Z,6.40
2019-03-27T07:44:02.129Z,7.60
2019-03-27T07:46:32.978Z,6.97
2019-03-27T07:49:03.657Z,6.70
2019-03-27T07:51:34.395Z,6.53
2019-03-27T07:54:05.349Z,7.07
2019-03-27T07:56:36.386Z,6.37
2019-03-27T07:59:07.221Z,7.03
2019-03-27T08:01:37.719Z,7.47
2019-03-27T08:04:08.798Z,6.90
2019-03-27T08:06:39.798Z,6.93
2019-03-27T08:09:11.143Z,6.90
2019-03-27T08:11:43.172Z,6.77
2019-03-27T08:14:14.070Z,6.97
2019-03-27T08:16:44.867Z,6.50
2019-03-27T08:19:15.661Z,6.40
2019-03-27T08:21:46.487Z,7.10
2019-03-27T08:24:17.495Z,7.53
2019-03-27T08:26:51.234Z,6.73
2019-03-27T08:29:22.221Z,6.87
2019-03-27T08:31:53.121Z,6.80
2019-03-27T08:34:23.831Z,7.00
2019-03-27T08:36:54.581Z,7.17
2019-03-27T08:39:25.761Z,7.43
2019-03-27T08:41:56.201Z,6.90
2019-03-27T08:44:27.081Z,7.60
2019-03-27T08:46:58.127Z,7.20
2019-03-27T08:49:28.771Z,7.30
2019-03-27T08:51:59.842Z,7.33
2019-03-27T08:54:30.713Z,8.03
2019-03-27T08:57:01.491Z,8.17
2019-03-27T08:59:34.044Z,7.80
2019-03-27T09:02:05.374Z,7.37
2019-03-27T09:04:36.849Z,7.33
2019-03-27T09:07:07.713Z,7.23
2019-03-27T09:09:40.330Z,7.20
2019-03-27T09:12:10.739Z,7.37
2019-03-27T09:14:44.445Z,7.47
2019-03-27T09:17:14.423Z,7.80
2019-03-27T09:19:45.392Z,7.77
2019-03-27T09:22:15.838Z,8.50
2019-03-27T09:24:46.611Z,8.07
2019-03-27T09:27:17.486Z,7.70
2019-03-27T09:29:48.429Z,8.27
2019-03-27T09:32:19.432Z,8.63
2019-03-27T09:34:51.966Z,7.67
2019-03-27T09:37:24.469Z,7.93
2019-03-27T09:39:57.492Z,7.73
2019-03-27T09:42:28.063Z,7.50
2019-03-27T09:44:58.936Z,7.40
2019-03-27T09:47:29.836Z,7.37
2019-03-27T09:50:00.746Z,7.50
2019-03-27T09:52:31.611Z,7.23
2019-03-27T09:55:02.812Z,6.63
2019-03-27T09:57:55.588Z,7.23
2019-03-27T10:00:48.205Z,6.63
2019-03-27T10:03:19.192Z,6.97
2019-03-27T10:05:51.716Z,7.23
2019-03-27T10:08:22.826Z,6.60
2019-03-27T10:10:53.589Z,7.43
2019-03-27T10:13:26.052Z,6.57
2019-03-27T10:15:57.025Z,7.43
2019-03-27T10:18:29.300Z,6.90
2019-03-27T10:21:01.790Z,7.07
2019-03-27T10:23:32.988Z,6.60
2019-03-27T10:26:04.035Z,6.80
2019-03-27T10:28:36.064Z,6.50
2019-03-27T10:31:06.960Z,7.07
2019-03-27T10:33:38.938Z,6.57
2019-03-27T10:36:09.917Z,6.57
2019-03-27T10:38:42.482Z,6.60
2019-03-27T10:41:13.376Z,6.63
2019-03-27T10:43:44.354Z,5.73
2019-03-27T10:46:16.864Z,6.10
2019-03-27T10:48:52.948Z,5.63
2019-03-27T10:51:21.768Z,6.30
2019-03-27T10:53:52.768Z,5.83
2019-03-27T10:56:23.588Z,5.97
2019-03-27T10:58:54.564Z,6.33
2019-03-27T11:01:25.157Z,5.70
2019-03-27T11:03:56.127Z,6.07
2019-03-27T11:06:28.531Z,6.20
2019-03-27T11:09:01.026Z,6.10
2019-03-27T11:11:33.578Z,6.07
2019-03-27T11:14:04.731Z,6.10
2019-03-27T11:16:38.416Z,6.83
2019-03-27T11:19:09.400Z,7.73
2019-03-27T11:21:40.026Z,7.70
2019-03-27T11:24:11.120Z,7.30
2019-03-27T11:26:42.228Z,7.10
2019-03-27T11:29:12.986Z,6.67
2019-03-27T11:31:43.828Z,7.47
2019-03-27T11:34:14.750Z,7.60
2019-03-27T11:36:47.440Z,7.50
2019-03-27T11:39:18.346Z,7.73
2019-03-27T11:41:50.757Z,6.73
2019-03-27T11:44:21.588Z,6.57
2019-03-27T11:46:52.522Z,7.07
2019-03-27T11:49:24.663Z,7.33
2019-03-27T11:51:57.956Z,6.93
2019-03-27T11:54:28.729Z,6.53
2019-03-27T11:56:59.646Z,5.50
2019-03-27T11:59:30.083Z,6.63
2019-03-27T12:02:01.102Z,6.83
2019-03-27T12:04:32.265Z,6.63
2019-03-27T12:07:03.103Z,6.63
2019-03-27T12:09:33.868Z,6.00
2019-03-27T12:12:06.596Z,5.80
2019-03-27T12:14:37.443Z,5.90
2019-03-27T12:17:08.191Z,6.17
2019-03-27T12:19:38.740Z,6.03
2019-03-27T12:22:09.577Z,5.90
2019-03-27T12:24:40.499Z,5.73
2019-03-27T12:27:11.266Z,5.87
2019-03-27T12:29:44.717Z,5.47
2019-03-27T12:32:15.465Z,5.47
2019-03-27T12:34:46.404Z,6.10
2019-03-27T12:37:17.308Z,6.17
2019-03-27T12:39:48.249Z,5.60
2019-03-27T12:42:19.195Z,5.90
2019-03-27T12:44:50.184Z,5.87
2019-03-27T12:47:20.935Z,6.07
2019-03-27T12:49:52.110Z,6.13
2019-03-27T12:52:25.855Z,6.07
2019-03-27T12:54:56.738Z,6.10
2019-03-27T12:57:27.505Z,6.30
2019-03-27T12:59:59.073Z,6.50
2019-03-27T13:02:29.988Z,7.13
2019-03-27T13:05:03.854Z,6.37
2019-03-27T13:07:49.119Z,6.37
2019-03-27T13:10:08.191Z,6.40
2019-03-27T13:12:39.181Z,5.60
2019-03-27T13:15:10.356Z,4.90
2019-03-27T13:17:41.237Z,5.20
2019-03-27T13:20:15.598Z,5.17
2019-03-27T13:22:46.869Z,4.73
2019-03-27T13:25:17.924Z,4.43
2019-03-27T13:27:48.714Z,4.33
2019-03-27T13:30:19.575Z,5.43
2019-03-27T13:32:50.369Z,5.07
2019-03-27T13:35:21.431Z,4.47
2019-03-27T13:37:52.427Z,5.50
2019-03-27T13:40:25.832Z,4.90
2019-03-27T13:42:58.361Z,5.30
2019-03-27T13:45:29.405Z,4.70
2019-03-27T13:48:00.328Z,5.03
2019-03-27T13:50:32.715Z,4.77
2019-03-27T13:53:03.645Z,4.73
2019-03-27T13:55:35.282Z,5.90
2019-03-27T13:58:06.409Z,4.07
2019-03-27T14:00:37.507Z,4.13
2019-03-27T14:03:08.521Z,3.43
2019-03-27T14:05:40.929Z,3.67
2019-03-27T14:08:11.392Z,4.23
2019-03-27T14:10:42.148Z,4.00
2019-03-27T14:13:13.146Z,4.20
2019-03-27T14:15:44.106Z,4.90
2019-03-27T14:18:15.007Z,4.50
2019-03-27T14:20:45.814Z,4.50
2019-03-27T14:23:16.570Z,4.17
2019-03-27T14:25:47.326Z,5.00
2019-03-27T14:28:19.545Z,4.27
2019-03-27T14:30:55.139Z,5.43
2019-03-27T14:33:26.057Z,7.87
2019-03-27T14:35:57.131Z,6.43
2019-03-27T14:38:28.493Z,6.83
2019-03-27T14:41:01.843Z,6.63
2019-03-27T14:43:32.679Z,5.70
2019-03-27T14:46:04.827Z,5.43
2019-03-27T14:48:35.635Z,5.53
2019-03-27T14:51:06.771Z,5.10
2019-03-27T14:53:37.461Z,4.90
2019-03-27T14:56:09.904Z,4.87
2019-03-27T14:58:40.743Z,4.83
2019-03-27T15:01:11.645Z,5.07
2019-03-27T15:03:42.139Z,5.23
2019-03-27T15:06:13.010Z,5.30
2019-03-27T15:08:43.775Z,5.50
2019-03-27T15:11:14.277Z,6.40
2019-03-27T15:13:45.234Z,6.27
2019-03-27T15:16:16.153Z,5.80
2019-03-27T15:18:47.172Z,5.97
2019-03-27T15:21:17.971Z,5.87
2019-03-27T15:23:48.822Z,5.57
2019-03-27T15:26:19.344Z,5.33
2019-03-27T15:28:50.886Z,5.90
2019-03-27T15:31:22.296Z,6.00
2019-03-27T15:33:53.948Z,6.30
2019-03-27T15:36:25.076Z,6.07
2019-03-27T15:38:57.667Z,5.30
2019-03-27T15:41:28.084Z,5.43
2019-03-27T15:43:59.431Z,5.97
2019-03-27T15:46:30.445Z,5.67
2019-03-27T15:49:01.347Z,5.33
2019-03-27T15:51:32.271Z,5.70
2019-03-27T15:54:03.136Z,6.10
2019-03-27T15:56:33.969Z,5.93
2019-03-27T15:59:04.990Z,5.30
2019-03-27T16:01:35.964Z,5.70
2019-03-27T16:04:06.799Z,6.10
2019-03-27T16:06:37.689Z,5.80
2019-03-27T16:09:11.011Z,5.23
2019-03-27T16:11:41.875Z,5.10
2019-03-27T16:14:12.856Z,5.70
2019-03-27T16:16:57.866Z,5.90
2019-03-27T16:19:18.569Z,5.73
2019-03-27T16:21:49.516Z,5.50
2019-03-27T16:24:20.422Z,5.47
2019-03-27T16:27:03.839Z,6.40
2019-03-27T16:29:26.016Z,6.80
2019-03-27T16:31:57.130Z,5.60
2019-03-27T16:34:28.016Z,6.67
2019-03-27T16:36:58.868Z,6.30
2019-03-27T16:39:29.511Z,6.63
2019-03-27T16:42:00.350Z,6.80
2019-03-27T16:44:30.772Z,6.17
2019-03-27T16:47:01.595Z,6.80
2019-03-27T16:49:32.564Z,6.57
2019-03-27T16:52:03.381Z,6.67
2019-03-27T16:54:35.968Z,6.17
2019-03-27T16:57:08.043Z,6.77
2019-03-27T16:59:38.860Z,7.20
2019-03-27T17:02:09.670Z,6.47
2019-03-27T17:04:43.084Z,7.17
2019-03-27T17:07:13.996Z,6.40
2019-03-27T17:09:44.841Z,7.13
2019-03-27T17:12:15.606Z,7.77
2019-03-27T17:14:46.174Z,7.10
2019-03-27T17:17:17.059Z,6.43
2019-03-27T17:19:47.486Z,6.63
2019-03-27T17:22:19.642Z,6.97
2019-03-27T17:24:50.466Z,6.23
2019-03-27T17:27:21.376Z,6.30
2019-03-27T17:29:52.271Z,5.97
2019-03-27T17:32:25.029Z,6.00
2019-03-27T17:34:55.986Z,6.43
2019-03-27T17:37:26.826Z,5.73
2019-03-27T17:39:57.968Z,6.60
2019-03-27T17:42:28.912Z,6.20
2019-03-27T17:44:59.773Z,5.47
2019-03-27T17:47:30.782Z,6.00
2019-03-27T17:50:01.698Z,5.63
2019-03-27T17:52:32.560Z,5.63
2019-03-27T17:55:06.378Z,5.70
2019-03-27T17:57:37.300Z,5.80
2019-03-27T18:00:11.072Z,6.30
2019-03-27T18:02:44.031Z,6.27
2019-03-27T18:05:15.055Z,5.93
2019-03-27T18:07:45.902Z,6.00
2019-03-27T18:10:16.705Z,6.10
2019-03-27T18:12:47.468Z,5.80
2019-03-27T18:15:19.578Z,6.03
2019-03-27T18:17:54.685Z,6.23
2019-03-27T18:20:27.528Z,6.33
2019-03-27T18:22:59.172Z,6.03
2019-03-27T18:25:33.972Z,5.73
2019-03-27T18:28:06.658Z,6.07
2019-03-27T18:30:45.158Z,6.57
2019-03-27T18:33:17.992Z,6.57
2019-03-27T18:35:58.045Z,6.50
2019-03-27T18:38:29.195Z,6.17
2019-03-27T18:41:00.089Z,6.77
2019-03-27T18:43:32.806Z,7.07
2019-03-27T18:46:14.976Z,6.70
2019-03-27T18:48:40.753Z,7.20
2019-03-27T18:51:11.773Z,6.63
2019-03-27T18:53:42.805Z,7.03
2019-03-27T18:56:13.709Z,7.00
2019-03-27T18:58:44.635Z,6.70
2019-03-27T19:01:15.797Z,6.93
2019-03-27T19:03:48.400Z,6.40
2019-03-27T19:06:19.148Z,6.83
2019-03-27T19:08:50.010Z,7.50
2019-03-27T19:11:20.537Z,7.90
2019-03-27T19:13:51.031Z,6.80
2019-03-27T19:16:22.079Z,7.57
2019-03-27T19:18:53.112Z,7.57
2019-03-27T19:21:24.037Z,8.37
2019-03-27T19:24:12.596Z,7.40
2019-03-27T19:26:32.998Z,7.23
2019-03-27T19:29:04.418Z,7.10
2019-03-27T19:31:40.270Z,7.27
2019-03-27T19:34:11.753Z,7.23
2019-03-27T19:36:42.839Z,7.37
2019-03-27T19:39:13.817Z,6.53
2019-03-27T19:41:48.322Z,7.73
2019-03-27T19:44:19.230Z,7.63
2019-03-27T19:46:50.277Z,7.83
2019-03-27T19:49:21.085Z,7.27
2019-03-27T19:51:51.981Z,7.20
2019-03-27T19:54:27.325Z,7.07
2019-03-27T19:56:56.140Z,6.70
2019-03-27T19:59:27.099Z,7.20
2019-03-27T20:01:57.581Z,6.90
2019-03-27T20:04:28.784Z,7.30
2019-03-27T20:06:59.697Z,6.83
2019-03-27T20:09:30.465Z,6.97
2019-03-27T20:12:01.431Z,6.73
2019-03-27T20:14:32.402Z,7.33
2019-03-27T20:17:03.284Z,8.10
2019-03-27T20:19:34.224Z,7.73
2019-03-27T20:22:05.276Z,7.70
2019-03-27T20:24:41.117Z,8.00
2019-03-27T20:27:12.093Z,8.77
2019-03-27T20:29:43.015Z,9.07
2019-03-27T20:32:14.500Z,10.13
2019-03-27T20:34:45.467Z,10.33
2019-03-27T20:37:19.550Z,10.33
2019-03-27T20:39:50.523Z,12.33
2019-03-27T20:42:21.255Z,10.33
2019-03-27T20:44:52.338Z,9.53
2019-03-27T20:47:26.778Z,10.20
2019-03-27T20:50:00.918Z,10.30
2019-03-27T20:52:31.918Z,10.67
2019-03-27T20:55:05.467Z,11.63
2019-03-27T20:57:37.991Z,11.90
2019-03-27T21:00:12.512Z,12.17
2019-03-27T21:05:35.334Z,11.90
2019-03-27T21:08:10.898Z,11.87
2019-03-27T21:11:05.207Z,12.90
2019-03-27T21:16:27.973Z,12.87
2019-03-27T21:20:06.967Z,13.97
2019-03-27T21:22:08.048Z,13.97
2019-03-27T21:24:37.209Z,15.73
2019-03-27T21:27:07.609Z,16.30
2019-03-27T21:29:38.496Z,17.20
2019-03-27T21:32:11.084Z,17.27
2019-03-27T21:34:41.995Z,17.07
2019-03-27T21:37:15.625Z,17.60
2019-03-27T21:39:48.058Z,16.73
2019-03-27T21:42:18.547Z,18.03
2019-03-27T21:44:49.301Z,17.57
2019-03-27T21:47:20.213Z,17.20
2019-03-27T21:49:50.952Z,16.23
2019-03-27T21:52:22.014Z,20.07
2019-03-27T21:54:53.163Z,16.07
2019-03-27T21:57:36.547Z,18.70
2019-03-27T22:00:08.579Z,17.43
2019-03-27T22:02:39.461Z,18.10
2019-03-27T22:05:10.456Z,17.43
2019-03-27T22:07:41.418Z,16.33
2019-03-27T22:10:12.544Z,17.60
2019-03-27T22:12:46.946Z,16.80
2019-03-27T22:15:17.481Z,16.37
2019-03-27T22:17:48.647Z,16.60
2019-03-27T22:20:19.524Z,16.53
2019-03-27T22:22:50.615Z,15.10
2019-03-27T22:25:34.930Z,16.77
2019-03-27T22:27:53.933Z,16.87
2019-03-27T22:30:24.999Z,16.97
2019-03-27T22:32:56.238Z,16.37
2019-03-27T22:35:27.705Z,15.63
2019-03-27T22:38:00.104Z,15.73
2019-03-27T22:40:30.687Z,16.20
2019-03-27T22:43:01.407Z,15.20
2019-03-27T22:45:32.285Z,14.30
2019-03-27T22:48:03.790Z,14.57
2019-03-27T22:50:34.835Z,14.90
2019-03-27T22:53:05.863Z,14.87
2019-03-27T22:55:49.191Z,14.03
2019-03-27T22:58:13.141Z,14.30
2019-03-27T23:00:45.887Z,14.17
2019-03-27T23:03:18.396Z,14.60
2019-03-27T23:05:49.212Z,14.63
2019-03-27T23:08:22.662Z,14.50
2019-03-27T23:10:53.165Z,14.07
2019-03-27T23:13:24.105Z,13.40
2019-03-27T23:15:55.069Z,13.43
2019-03-27T23:18:26.073Z,13.30
2019-03-27T23:20:56.993Z,12.70
2019-03-27T23:23:27.867Z,12.87
2019-03-27T23:26:03.153Z,11.57
2019-03-27T23:28:33.098Z,11.67
2019-03-27T23:31:04.080Z,11.90
2019-03-27T23:33:35.123Z,11.47
2019-03-27T23:36:05.880Z,11.03
2019-03-27T23:38:36.704Z,11.00
2019-03-27T23:41:07.857Z,11.67
2019-03-27T23:43:38.621Z,11.67
2019-03-27T23:46:09.508Z,10.97
2019-03-27T23:48:39.951Z,11.50
2019-03-27T23:51:11.919Z,12.00
2019-03-27T23:53:42.793Z,12.10
2019-03-27T23:56:16.734Z,11.73
2019-03-27T23:58:46.194Z,12.20
